sensor_id;sensor_type;location;lat;lon;timestamp;temperature;humidity
24326;DHT22;12448;45.532;5.290;2022-09-17T00:02:01;14.00;83.80
24326;DHT22;12448;45.532;5.290;2022-09-17T00:04:27;13.90;84.00
24326;DHT22;12448;45.532;5.290;2022-09-17T00:07:02;13.90;84.30
24326;DHT22;12448;45.532;5.290;2022-09-17T00:09:28;13.80;84.20
24326;DHT22;12448;45.532;5.290;2022-09-17T00:11:54;13.80;84.70
24326;DHT22;12448;45.532;5.290;2022-09-17T00:14:19;13.70;84.80
24326;DHT22;12448;45.532;5.290;2022-09-17T00:16:54;13.60;85.00
24326;DHT22;12448;45.532;5.290;2022-09-17T00:19:21;13.60;85.10
24326;DHT22;12448;45.532;5.290;2022-09-17T00:21:53;13.60;84.70
24326;DHT22;12448;45.532;5.290;2022-09-17T00:24:25;13.70;84.80
24326;DHT22;12448;45.532;5.290;2022-09-17T00:26:59;14.00;84.80
24326;DHT22;12448;45.532;5.290;2022-09-17T00:29:25;13.70;84.40
24326;DHT22;12448;45.532;5.290;2022-09-17T00:32:06;13.70;83.90
24326;DHT22;12448;45.532;5.290;2022-09-17T00:34:32;13.80;83.70
24326;DHT22;12448;45.532;5.290;2022-09-17T00:37:10;13.80;83.70
24326;DHT22;12448;45.532;5.290;2022-09-17T00:39:36;13.80;83.60
24326;DHT22;12448;45.532;5.290;2022-09-17T00:42:08;13.90;83.70
24326;DHT22;12448;45.532;5.290;2022-09-17T00:44:55;13.90;83.50
24326;DHT22;12448;45.532;5.290;2022-09-17T00:47:40;14.00;83.20
24326;DHT22;12448;45.532;5.290;2022-09-17T00:50:50;14.10;83.10
24326;DHT22;12448;45.532;5.290;2022-09-17T00:56:34;14.00;82.90
24326;DHT22;12448;45.532;5.290;2022-09-17T00:59:01;14.00;83.10
24326;DHT22;12448;45.532;5.290;2022-09-17T01:02:05;14.10;83.20
24326;DHT22;12448;45.532;5.290;2022-09-17T01:10:21;14.10;83.00
24326;DHT22;12448;45.532;5.290;2022-09-17T01:13:36;14.10;83.00
24326;DHT22;12448;45.532;5.290;2022-09-17T01:16:54;14.00;83.10
24326;DHT22;12448;45.532;5.290;2022-09-17T01:22:11;13.90;83.20
24326;DHT22;12448;45.532;5.290;2022-09-17T01:33:57;13.80;83.80
24326;DHT22;12448;45.532;5.290;2022-09-17T01:36:34;13.80;83.80
24326;DHT22;12448;45.532;5.290;2022-09-17T01:39:48;13.80;83.70
24326;DHT22;12448;45.532;5.290;2022-09-17T01:43:06;13.70;83.70
24326;DHT22;12448;45.532;5.290;2022-09-17T01:48:44;13.60;84.40
24326;DHT22;12448;45.532;5.290;2022-09-17T01:51:18;13.70;84.50
24326;DHT22;12448;45.532;5.290;2022-09-17T01:54:50;13.70;84.30
24326;DHT22;12448;45.532;5.290;2022-09-17T01:57:27;13.70;84.10
24326;DHT22;12448;45.532;5.290;2022-09-17T02:03:37;14.00;83.90
24326;DHT22;12448;45.532;5.290;2022-09-17T02:06:33;14.10;83.60
24326;DHT22;12448;45.532;5.290;2022-09-17T02:09:53;14.20;83.40
24326;DHT22;12448;45.532;5.290;2022-09-17T02:12:33;14.30;83.00
24326;DHT22;12448;45.532;5.290;2022-09-17T02:15:28;14.30;82.40
24326;DHT22;12448;45.532;5.290;2022-09-17T02:18:12;14.30;82.50
24326;DHT22;12448;45.532;5.290;2022-09-17T02:20:49;14.40;82.50
24326;DHT22;12448;45.532;5.290;2022-09-17T02:24:06;14.40;82.20
24326;DHT22;12448;45.532;5.290;2022-09-17T02:27:04;14.30;81.70
24326;DHT22;12448;45.532;5.290;2022-09-17T02:29:57;14.20;82.20
24326;DHT22;12448;45.532;5.290;2022-09-17T02:32:25;14.10;82.50
24326;DHT22;12448;45.532;5.290;2022-09-17T02:34:52;13.90;82.70
24326;DHT22;12448;45.532;5.290;2022-09-17T02:37:27;13.80;83.20
24326;DHT22;12448;45.532;5.290;2022-09-17T02:40:14;13.50;83.70
24326;DHT22;12448;45.532;5.290;2022-09-17T02:56:26;13.10;86.80
24326;DHT22;12448;45.532;5.290;2022-09-17T02:59:21;13.10;87.40
24326;DHT22;12448;45.532;5.290;2022-09-17T03:01:58;13.10;87.60
24326;DHT22;12448;45.532;5.290;2022-09-17T03:04:27;13.00;87.50
24326;DHT22;12448;45.532;5.290;2022-09-17T03:06:54;13.00;87.70
24326;DHT22;12448;45.532;5.290;2022-09-17T03:09:20;12.80;87.80
24326;DHT22;12448;45.532;5.290;2022-09-17T03:11:46;12.70;88.20
24326;DHT22;12448;45.532;5.290;2022-09-17T03:14:21;12.80;88.80
24326;DHT22;12448;45.532;5.290;2022-09-17T03:16:52;12.80;88.60
24326;DHT22;12448;45.532;5.290;2022-09-17T03:19:36;12.50;88.70
24326;DHT22;12448;45.532;5.290;2022-09-17T03:22:02;12.60;89.30
24326;DHT22;12448;45.532;5.290;2022-09-17T03:24:28;12.60;89.20
24326;DHT22;12448;45.532;5.290;2022-09-17T03:26:54;12.80;89.30
24326;DHT22;12448;45.532;5.290;2022-09-17T03:29:22;12.60;89.40
24326;DHT22;12448;45.532;5.290;2022-09-17T03:32:04;12.60;89.10
24326;DHT22;12448;45.532;5.290;2022-09-17T03:34:39;12.70;88.90
24326;DHT22;12448;45.532;5.290;2022-09-17T03:37:05;12.70;88.90
24326;DHT22;12448;45.532;5.290;2022-09-17T03:39:39;12.60;88.70
24326;DHT22;12448;45.532;5.290;2022-09-17T03:42:12;12.70;88.70
24326;DHT22;12448;45.532;5.290;2022-09-17T03:44:38;12.70;88.50
24326;DHT22;12448;45.532;5.290;2022-09-17T03:47:18;12.70;88.50
24326;DHT22;12448;45.532;5.290;2022-09-17T03:49:43;12.60;88.40
24326;DHT22;12448;45.532;5.290;2022-09-17T03:52:12;12.70;88.50
24326;DHT22;12448;45.532;5.290;2022-09-17T03:54:38;12.60;89.10
24326;DHT22;12448;45.532;5.290;2022-09-17T03:57:04;12.30;89.80
24326;DHT22;12448;45.532;5.290;2022-09-17T04:00:29;12.30;90.10
24326;DHT22;12448;45.532;5.290;2022-09-17T04:02:58;12.20;90.30
24326;DHT22;12448;45.532;5.290;2022-09-17T04:05:26;12.20;90.40
24326;DHT22;12448;45.532;5.290;2022-09-17T04:07:52;12.10;90.40
24326;DHT22;12448;45.532;5.290;2022-09-17T04:10:21;12.00;90.70
24326;DHT22;12448;45.532;5.290;2022-09-17T04:12:57;12.00;90.50
24326;DHT22;12448;45.532;5.290;2022-09-17T04:15:22;11.90;90.70
24326;DHT22;12448;45.532;5.290;2022-09-17T04:17:48;11.90;90.80
24326;DHT22;12448;45.532;5.290;2022-09-17T04:20:20;11.70;91.00
24326;DHT22;12448;45.532;5.290;2022-09-17T04:22:45;11.70;91.30
24326;DHT22;12448;45.532;5.290;2022-09-17T04:25:11;11.60;91.30
24326;DHT22;12448;45.532;5.290;2022-09-17T04:27:39;11.70;91.40
24326;DHT22;12448;45.532;5.290;2022-09-17T04:30:05;11.60;91.50
24326;DHT22;12448;45.532;5.290;2022-09-17T04:32:31;11.60;91.50
24326;DHT22;12448;45.532;5.290;2022-09-17T04:34:57;11.50;91.80
24326;DHT22;12448;45.532;5.290;2022-09-17T04:37:23;11.60;91.80
24326;DHT22;12448;45.532;5.290;2022-09-17T04:39:50;11.60;91.70
24326;DHT22;12448;45.532;5.290;2022-09-17T04:42:16;11.60;91.90
24326;DHT22;12448;45.532;5.290;2022-09-17T04:44:41;11.50;92.00
24326;DHT22;12448;45.532;5.290;2022-09-17T04:47:07;11.50;92.00
24326;DHT22;12448;45.532;5.290;2022-09-17T04:49:33;11.50;91.80
24326;DHT22;12448;45.532;5.290;2022-09-17T04:51:59;11.60;91.90
24326;DHT22;12448;45.532;5.290;2022-09-17T04:54:24;11.60;92.00
24326;DHT22;12448;45.532;5.290;2022-09-17T04:56:50;11.70;91.70
24326;DHT22;12448;45.532;5.290;2022-09-17T04:59:16;11.60;91.70
24326;DHT22;12448;45.532;5.290;2022-09-17T05:01:41;11.90;91.70
24326;DHT22;12448;45.532;5.290;2022-09-17T05:04:08;11.70;91.60
24326;DHT22;12448;45.532;5.290;2022-09-17T05:06:34;11.70;91.50
24326;DHT22;12448;45.532;5.290;2022-09-17T05:08:59;11.60;91.40
24326;DHT22;12448;45.532;5.290;2022-09-17T05:11:27;11.60;91.40
24326;DHT22;12448;45.532;5.290;2022-09-17T05:13:53;11.70;91.50
24326;DHT22;12448;45.532;5.290;2022-09-17T05:16:18;11.70;91.40
24326;DHT22;12448;45.532;5.290;2022-09-17T05:18:44;11.70;91.30
24326;DHT22;12448;45.532;5.290;2022-09-17T05:21:10;11.70;91.10
24326;DHT22;12448;45.532;5.290;2022-09-17T05:23:36;11.70;91.20
24326;DHT22;12448;45.532;5.290;2022-09-17T05:26:01;11.80;91.20
24326;DHT22;12448;45.532;5.290;2022-09-17T05:28:27;11.70;91.20
24326;DHT22;12448;45.532;5.290;2022-09-17T05:30:53;11.70;91.30
24326;DHT22;12448;45.532;5.290;2022-09-17T05:33:19;11.50;91.50
24326;DHT22;12448;45.532;5.290;2022-09-17T05:35:45;11.70;91.70
24326;DHT22;12448;45.532;5.290;2022-09-17T05:38:11;11.40;91.70
24326;DHT22;12448;45.532;5.290;2022-09-17T05:40:37;11.30;91.90
24326;DHT22;12448;45.532;5.290;2022-09-17T05:43:04;11.30;92.10
24326;DHT22;12448;45.532;5.290;2022-09-17T05:45:34;11.20;92.20
24326;DHT22;12448;45.532;5.290;2022-09-17T05:48:01;11.20;92.40
24326;DHT22;12448;45.532;5.290;2022-09-17T05:50:28;11.20;92.40
24326;DHT22;12448;45.532;5.290;2022-09-17T05:52:54;11.20;92.50
24326;DHT22;12448;45.532;5.290;2022-09-17T05:55:21;11.20;92.60
24326;DHT22;12448;45.532;5.290;2022-09-17T05:57:49;11.20;92.60
24326;DHT22;12448;45.532;5.290;2022-09-17T06:00:15;11.20;92.60
24326;DHT22;12448;45.532;5.290;2022-09-17T06:02:41;11.20;92.60
24326;DHT22;12448;45.532;5.290;2022-09-17T06:05:07;11.10;92.80
24326;DHT22;12448;45.532;5.290;2022-09-17T06:07:34;11.10;92.90
24326;DHT22;12448;45.532;5.290;2022-09-17T06:10:01;11.10;92.90
24326;DHT22;12448;45.532;5.290;2022-09-17T06:12:27;11.10;92.90
24326;DHT22;12448;45.532;5.290;2022-09-17T06:15:11;11.10;93.00
24326;DHT22;12448;45.532;5.290;2022-09-17T06:17:55;11.20;92.90
24326;DHT22;12448;45.532;5.290;2022-09-17T06:20:21;11.10;93.00
24326;DHT22;12448;45.532;5.290;2022-09-17T06:22:47;11.10;92.90
24326;DHT22;12448;45.532;5.290;2022-09-17T06:25:13;11.10;92.70
24326;DHT22;12448;45.532;5.290;2022-09-17T06:27:39;11.10;92.70
24326;DHT22;12448;45.532;5.290;2022-09-17T06:30:06;11.20;92.50
24326;DHT22;12448;45.532;5.290;2022-09-17T06:32:32;11.20;92.50
24326;DHT22;12448;45.532;5.290;2022-09-17T06:34:58;11.20;92.30
24326;DHT22;12448;45.532;5.290;2022-09-17T06:37:27;11.00;92.30
24326;DHT22;12448;45.532;5.290;2022-09-17T06:39:53;11.10;92.50
24326;DHT22;12448;45.532;5.290;2022-09-17T06:42:19;11.10;92.50
24326;DHT22;12448;45.532;5.290;2022-09-17T06:44:44;11.00;92.50
24326;DHT22;12448;45.532;5.290;2022-09-17T06:47:10;11.10;92.70
24326;DHT22;12448;45.532;5.290;2022-09-17T06:49:36;11.10;92.40
24326;DHT22;12448;45.532;5.290;2022-09-17T06:52:02;11.10;92.50
24326;DHT22;12448;45.532;5.290;2022-09-17T06:54:28;11.10;92.50
24326;DHT22;12448;45.532;5.290;2022-09-17T06:56:57;11.10;92.40
24326;DHT22;12448;45.532;5.290;2022-09-17T06:59:23;11.20;92.30
24326;DHT22;12448;45.532;5.290;2022-09-17T07:01:50;11.20;92.30
24326;DHT22;12448;45.532;5.290;2022-09-17T07:04:15;11.20;92.00
24326;DHT22;12448;45.532;5.290;2022-09-17T07:06:44;11.20;92.00
24326;DHT22;12448;45.532;5.290;2022-09-17T07:09:13;11.20;91.80
24326;DHT22;12448;45.532;5.290;2022-09-17T07:11:39;11.30;91.80
24326;DHT22;12448;45.532;5.290;2022-09-17T07:14:14;11.40;91.70
24326;DHT22;12448;45.532;5.290;2022-09-17T07:16:39;11.40;90.90
24326;DHT22;12448;45.532;5.290;2022-09-17T07:19:05;11.50;91.00
24326;DHT22;12448;45.532;5.290;2022-09-17T07:21:31;11.50;90.90
24326;DHT22;12448;45.532;5.290;2022-09-17T07:23:57;11.50;90.80
24326;DHT22;12448;45.532;5.290;2022-09-17T07:26:23;11.60;90.70
24326;DHT22;12448;45.532;5.290;2022-09-17T07:28:49;11.50;90.40
24326;DHT22;12448;45.532;5.290;2022-09-17T07:31:15;11.50;90.40
24326;DHT22;12448;45.532;5.290;2022-09-17T07:33:40;11.40;90.40
24326;DHT22;12448;45.532;5.290;2022-09-17T07:36:11;11.40;90.30
24326;DHT22;12448;45.532;5.290;2022-09-17T07:38:38;11.40;90.50
24326;DHT22;12448;45.532;5.290;2022-09-17T07:41:10;11.40;90.40
24326;DHT22;12448;45.532;5.290;2022-09-17T07:43:39;11.40;90.70
24326;DHT22;12448;45.532;5.290;2022-09-17T07:46:06;11.40;90.60
24326;DHT22;12448;45.532;5.290;2022-09-17T07:48:32;11.40;90.40
24326;DHT22;12448;45.532;5.290;2022-09-17T07:50:59;11.50;90.50
24326;DHT22;12448;45.532;5.290;2022-09-17T07:53:24;11.50;90.50
24326;DHT22;12448;45.532;5.290;2022-09-17T07:55:56;11.40;89.60
24326;DHT22;12448;45.532;5.290;2022-09-17T07:58:32;11.50;89.30
24326;DHT22;12448;45.532;5.290;2022-09-17T08:01:04;11.40;89.40
24326;DHT22;12448;45.532;5.290;2022-09-17T08:03:30;11.40;88.90
24326;DHT22;12448;45.532;5.290;2022-09-17T08:06:13;11.40;89.00
24326;DHT22;12448;45.532;5.290;2022-09-17T08:08:39;11.50;89.20
24326;DHT22;12448;45.532;5.290;2022-09-17T08:11:08;11.50;88.60
24326;DHT22;12448;45.532;5.290;2022-09-17T08:13:34;11.70;87.50
24326;DHT22;12448;45.532;5.290;2022-09-17T08:16:01;11.70;88.00
24326;DHT22;12448;45.532;5.290;2022-09-17T08:18:28;11.60;87.00
24326;DHT22;12448;45.532;5.290;2022-09-17T08:20:58;11.90;87.30
24326;DHT22;12448;45.532;5.290;2022-09-17T08:23:24;11.60;87.30
24326;DHT22;12448;45.532;5.290;2022-09-17T08:25:57;11.80;86.70
24326;DHT22;12448;45.532;5.290;2022-09-17T08:28:25;11.80;85.40
24326;DHT22;12448;45.532;5.290;2022-09-17T08:30:51;11.90;85.40
24326;DHT22;12448;45.532;5.290;2022-09-17T08:33:17;11.90;85.30
24326;DHT22;12448;45.532;5.290;2022-09-17T08:35:53;12.10;84.70
24326;DHT22;12448;45.532;5.290;2022-09-17T08:38:19;12.00;83.30
24326;DHT22;12448;45.532;5.290;2022-09-17T08:47:02;11.90;82.90
24326;DHT22;12448;45.532;5.290;2022-09-17T09:00:16;12.40;82.10
24326;DHT22;12448;45.532;5.290;2022-09-17T09:08:13;12.50;79.60
24326;DHT22;12448;45.532;5.290;2022-09-17T09:11:00;12.50;79.60
24326;DHT22;12448;45.532;5.290;2022-09-17T09:13:32;12.50;80.20
24326;DHT22;12448;45.532;5.290;2022-09-17T09:16:16;12.50;79.40
24326;DHT22;12448;45.532;5.290;2022-09-17T09:18:58;12.50;78.20
24326;DHT22;12448;45.532;5.290;2022-09-17T09:21:26;12.60;79.30
24326;DHT22;12448;45.532;5.290;2022-09-17T09:33:35;12.90;76.80
24326;DHT22;12448;45.532;5.290;2022-09-17T09:36:15;12.90;76.80
24326;DHT22;12448;45.532;5.290;2022-09-17T09:38:51;12.90;77.10
24326;DHT22;12448;45.532;5.290;2022-09-17T09:41:41;13.00;79.20
24326;DHT22;12448;45.532;5.290;2022-09-17T09:44:14;13.00;78.40
24326;DHT22;12448;45.532;5.290;2022-09-17T09:57:55;13.10;77.60
24326;DHT22;12448;45.532;5.290;2022-09-17T10:00:39;13.20;78.10
24326;DHT22;12448;45.532;5.290;2022-09-17T10:03:42;13.30;77.50
24326;DHT22;12448;45.532;5.290;2022-09-17T10:06:11;13.20;76.00
24326;DHT22;12448;45.532;5.290;2022-09-17T10:08:41;13.20;76.70
24326;DHT22;12448;45.532;5.290;2022-09-17T10:14:47;13.30;75.30
24326;DHT22;12448;45.532;5.290;2022-09-17T10:17:40;13.30;76.70
24326;DHT22;12448;45.532;5.290;2022-09-17T10:23:52;13.50;75.10
24326;DHT22;12448;45.532;5.290;2022-09-17T10:26:28;13.40;74.70
24326;DHT22;12448;45.532;5.290;2022-09-17T10:29:05;13.40;75.00
24326;DHT22;12448;45.532;5.290;2022-09-17T10:32:01;13.40;76.00
24326;DHT22;12448;45.532;5.290;2022-09-17T10:34:31;13.40;75.10
24326;DHT22;12448;45.532;5.290;2022-09-17T10:37:30;13.40;75.70
24326;DHT22;12448;45.532;5.290;2022-09-17T10:39:57;13.50;75.10
24326;DHT22;12448;45.532;5.290;2022-09-17T10:42:25;13.50;74.80
24326;DHT22;12448;45.532;5.290;2022-09-17T10:44:55;13.40;73.50
24326;DHT22;12448;45.532;5.290;2022-09-17T10:47:29;13.50;74.90
24326;DHT22;12448;45.532;5.290;2022-09-17T10:50:03;13.70;73.60
24326;DHT22;12448;45.532;5.290;2022-09-17T10:52:39;13.80;74.20
24326;DHT22;12448;45.532;5.290;2022-09-17T10:55:29;13.60;73.70
24326;DHT22;12448;45.532;5.290;2022-09-17T11:12:03;13.80;73.20
24326;DHT22;12448;45.532;5.290;2022-09-17T11:15:02;13.90;72.20
24326;DHT22;12448;45.532;5.290;2022-09-17T11:17:42;14.00;73.30
24326;DHT22;12448;45.532;5.290;2022-09-17T11:23:02;14.20;71.60
24326;DHT22;12448;45.532;5.290;2022-09-17T11:25:43;14.30;70.70
24326;DHT22;12448;45.532;5.290;2022-09-17T11:36:38;14.30;71.10
24326;DHT22;12448;45.532;5.290;2022-09-17T11:39:12;14.30;70.90
24326;DHT22;12448;45.532;5.290;2022-09-17T11:41:42;14.40;71.20
24326;DHT22;12448;45.532;5.290;2022-09-17T11:44:16;14.30;70.50
24326;DHT22;12448;45.532;5.290;2022-09-17T11:46:50;14.40;70.40
24326;DHT22;12448;45.532;5.290;2022-09-17T11:49:43;14.50;71.10
24326;DHT22;12448;45.532;5.290;2022-09-17T11:52:17;14.50;69.50
24326;DHT22;12448;45.532;5.290;2022-09-17T11:54:49;14.70;69.40
24326;DHT22;12448;45.532;5.290;2022-09-17T11:57:21;14.70;68.50
24326;DHT22;12448;45.532;5.290;2022-09-17T12:00:11;14.80;68.80
24326;DHT22;12448;45.532;5.290;2022-09-17T12:02:55;14.90;67.20
24326;DHT22;12448;45.532;5.290;2022-09-17T12:05:27;15.00;67.30
24326;DHT22;12448;45.532;5.290;2022-09-17T12:08:17;15.10;68.90
24326;DHT22;12448;45.532;5.290;2022-09-17T12:17:18;15.10;68.40
24326;DHT22;12448;45.532;5.290;2022-09-17T12:20:47;15.10;68.90
24326;DHT22;12448;45.532;5.290;2022-09-17T12:37:59;15.10;67.00
24326;DHT22;12448;45.532;5.290;2022-09-17T12:59:04;15.10;69.00
24326;DHT22;12448;45.532;5.290;2022-09-17T13:01:56;15.10;68.30
24326;DHT22;12448;45.532;5.290;2022-09-17T13:13:06;15.40;68.10
24326;DHT22;12448;45.532;5.290;2022-09-17T13:21:22;15.50;64.20
24326;DHT22;12448;45.532;5.290;2022-09-17T13:23:51;15.30;65.00
24326;DHT22;12448;45.532;5.290;2022-09-17T13:26:21;15.20;65.40
24326;DHT22;12448;45.532;5.290;2022-09-17T13:34:55;15.10;66.00
24326;DHT22;12448;45.532;5.290;2022-09-17T13:37:32;14.90;65.90
24326;DHT22;12448;45.532;5.290;2022-09-17T13:40:00;14.90;67.10
24326;DHT22;12448;45.532;5.290;2022-09-17T13:42:45;15.00;67.10
24326;DHT22;12448;45.532;5.290;2022-09-17T13:45:14;15.10;64.60
24326;DHT22;12448;45.532;5.290;2022-09-17T13:47:51;15.30;65.50
24326;DHT22;12448;45.532;5.290;2022-09-17T13:50:46;15.60;64.50
24326;DHT22;12448;45.532;5.290;2022-09-17T13:55:48;15.30;63.80
24326;DHT22;12448;45.532;5.290;2022-09-17T13:58:24;15.30;65.20
24326;DHT22;12448;45.532;5.290;2022-09-17T14:01:05;15.30;65.20
24326;DHT22;12448;45.532;5.290;2022-09-17T14:09:28;15.30;65.50
24326;DHT22;12448;45.532;5.290;2022-09-17T14:11:56;15.40;65.60
24326;DHT22;12448;45.532;5.290;2022-09-17T14:14:39;15.40;65.70
24326;DHT22;12448;45.532;5.290;2022-09-17T14:17:08;15.50;64.70
24326;DHT22;12448;45.532;5.290;2022-09-17T14:25:02;15.60;63.90
24326;DHT22;12448;45.532;5.290;2022-09-17T14:28:02;15.70;64.80
24326;DHT22;12448;45.532;5.290;2022-09-17T14:30:35;15.80;64.80
24326;DHT22;12448;45.532;5.290;2022-09-17T14:33:17;15.70;64.40
24326;DHT22;12448;45.532;5.290;2022-09-17T14:35:45;15.70;64.30
24326;DHT22;12448;45.532;5.290;2022-09-17T14:43:30;15.60;64.40
24326;DHT22;12448;45.532;5.290;2022-09-17T14:45:59;15.50;64.90
24326;DHT22;12448;45.532;5.290;2022-09-17T14:48:26;15.50;65.10
24326;DHT22;12448;45.532;5.290;2022-09-17T14:51:00;15.50;64.80
24326;DHT22;12448;45.532;5.290;2022-09-17T14:53:35;15.50;64.60
24326;DHT22;12448;45.532;5.290;2022-09-17T14:56:01;15.40;64.90
24326;DHT22;12448;45.532;5.290;2022-09-17T14:58:40;15.40;65.00
24326;DHT22;12448;45.532;5.290;2022-09-17T15:01:24;15.40;65.60
24326;DHT22;12448;45.532;5.290;2022-09-17T15:06:39;15.30;65.40
24326;DHT22;12448;45.532;5.290;2022-09-17T15:09:22;15.30;65.10
24326;DHT22;12448;45.532;5.290;2022-09-17T15:11:58;15.30;64.70
24326;DHT22;12448;45.532;5.290;2022-09-17T15:14:44;15.40;64.10
24326;DHT22;12448;45.532;5.290;2022-09-17T15:17:14;15.40;63.60
24326;DHT22;12448;45.532;5.290;2022-09-17T15:20:22;15.30;63.60
24326;DHT22;12448;45.532;5.290;2022-09-17T15:23:19;15.30;63.00
24326;DHT22;12448;45.532;5.290;2022-09-17T15:25:50;15.20;63.90
24326;DHT22;12448;45.532;5.290;2022-09-17T15:28:43;15.30;64.80
24326;DHT22;12448;45.532;5.290;2022-09-17T15:31:20;15.20;63.10
24326;DHT22;12448;45.532;5.290;2022-09-17T15:33:46;15.20;63.30
24326;DHT22;12448;45.532;5.290;2022-09-17T15:36:23;15.20;63.50
24326;DHT22;12448;45.532;5.290;2022-09-17T15:39:06;15.20;64.60
24326;DHT22;12448;45.532;5.290;2022-09-17T15:42:28;15.30;64.70
24326;DHT22;12448;45.532;5.290;2022-09-17T15:44:52;15.10;64.40
24326;DHT22;12448;45.532;5.290;2022-09-17T15:47:58;15.00;64.50
24326;DHT22;12448;45.532;5.290;2022-09-17T15:50:57;14.90;64.40
24326;DHT22;12448;45.532;5.290;2022-09-17T15:53:26;14.90;64.50
24326;DHT22;12448;45.532;5.290;2022-09-17T15:56:07;14.80;65.30
24326;DHT22;12448;45.532;5.290;2022-09-17T16:06:46;14.90;63.90
24326;DHT22;12448;45.532;5.290;2022-09-17T16:13:15;14.90;62.60
24326;DHT22;12448;45.532;5.290;2022-09-17T16:15:44;14.80;62.60
24326;DHT22;12448;45.532;5.290;2022-09-17T16:18:11;14.90;62.60
24326;DHT22;12448;45.532;5.290;2022-09-17T16:20:38;15.00;62.40
24326;DHT22;12448;45.532;5.290;2022-09-17T16:26:31;15.00;61.90
24326;DHT22;12448;45.532;5.290;2022-09-17T16:29:29;14.90;61.60
24326;DHT22;12448;45.532;5.290;2022-09-17T16:32:14;14.90;62.80
24326;DHT22;12448;45.532;5.290;2022-09-17T16:34:46;14.90;62.60
24326;DHT22;12448;45.532;5.290;2022-09-17T16:37:12;14.80;63.30
24326;DHT22;12448;45.532;5.290;2022-09-17T16:39:37;14.70;63.80
24326;DHT22;12448;45.532;5.290;2022-09-17T16:42:03;14.70;64.30
24326;DHT22;12448;45.532;5.290;2022-09-17T16:44:29;14.70;64.80
24326;DHT22;12448;45.532;5.290;2022-09-17T16:46:55;14.80;65.10
24326;DHT22;12448;45.532;5.290;2022-09-17T16:49:21;14.80;64.70
24326;DHT22;12448;45.532;5.290;2022-09-17T16:51:52;14.70;64.50
24326;DHT22;12448;45.532;5.290;2022-09-17T16:55:18;14.70;64.80
24326;DHT22;12448;45.532;5.290;2022-09-17T16:57:56;14.70;64.10
24326;DHT22;12448;45.532;5.290;2022-09-17T17:00:44;14.70;63.80
24326;DHT22;12448;45.532;5.290;2022-09-17T17:03:14;14.70;63.70
24326;DHT22;12448;45.532;5.290;2022-09-17T17:05:50;14.60;63.20
24326;DHT22;12448;45.532;5.290;2022-09-17T17:08:31;14.60;62.90
24326;DHT22;12448;45.532;5.290;2022-09-17T17:10:58;14.60;63.00
24326;DHT22;12448;45.532;5.290;2022-09-17T17:13:46;14.50;62.00
24326;DHT22;12448;45.532;5.290;2022-09-17T17:19:40;14.40;61.90
24326;DHT22;12448;45.532;5.290;2022-09-17T17:22:06;14.40;63.10
24326;DHT22;12448;45.532;5.290;2022-09-17T17:24:33;14.30;62.70
24326;DHT22;12448;45.532;5.290;2022-09-17T17:26:58;14.30;63.40
24326;DHT22;12448;45.532;5.290;2022-09-17T17:29:27;14.30;63.60
24326;DHT22;12448;45.532;5.290;2022-09-17T17:31:53;14.30;63.50
24326;DHT22;12448;45.532;5.290;2022-09-17T17:34:18;14.30;63.80
24326;DHT22;12448;45.532;5.290;2022-09-17T17:36:46;14.30;64.00
24326;DHT22;12448;45.532;5.290;2022-09-17T17:39:12;14.20;64.40
24326;DHT22;12448;45.532;5.290;2022-09-17T17:41:38;14.20;64.80
24326;DHT22;12448;45.532;5.290;2022-09-17T17:44:04;14.10;64.60
24326;DHT22;12448;45.532;5.290;2022-09-17T17:46:29;14.10;65.10
24326;DHT22;12448;45.532;5.290;2022-09-17T17:48:55;14.00;65.40
24326;DHT22;12448;45.532;5.290;2022-09-17T17:51:22;14.00;65.20
24326;DHT22;12448;45.532;5.290;2022-09-17T17:53:49;14.00;65.70
24326;DHT22;12448;45.532;5.290;2022-09-17T17:56:16;14.00;65.70
24326;DHT22;12448;45.532;5.290;2022-09-17T17:58:42;14.00;65.90
24326;DHT22;12448;45.532;5.290;2022-09-17T18:01:13;13.90;66.10
24326;DHT22;12448;45.532;5.290;2022-09-17T18:04:26;13.90;66.30
24326;DHT22;12448;45.532;5.290;2022-09-17T18:06:51;13.90;66.20
24326;DHT22;12448;45.532;5.290;2022-09-17T18:09:20;13.90;66.40
24326;DHT22;12448;45.532;5.290;2022-09-17T18:11:51;13.90;66.60
24326;DHT22;12448;45.532;5.290;2022-09-17T18:14:21;13.80;66.20
24326;DHT22;12448;45.532;5.290;2022-09-17T18:16:47;13.80;66.50
24326;DHT22;12448;45.532;5.290;2022-09-17T18:19:13;13.80;66.70
24326;DHT22;12448;45.532;5.290;2022-09-17T18:21:59;13.70;66.70
24326;DHT22;12448;45.532;5.290;2022-09-17T18:24:28;13.80;67.00
24326;DHT22;12448;45.532;5.290;2022-09-17T18:27:01;13.70;67.00
24326;DHT22;12448;45.532;5.290;2022-09-17T18:29:29;13.60;67.10
24326;DHT22;12448;45.532;5.290;2022-09-17T18:31:55;13.70;67.40
24326;DHT22;12448;45.532;5.290;2022-09-17T18:34:21;13.70;67.20
24326;DHT22;12448;45.532;5.290;2022-09-17T18:36:46;13.60;67.20
24326;DHT22;12448;45.532;5.290;2022-09-17T18:39:13;13.60;67.00
24326;DHT22;12448;45.532;5.290;2022-09-17T18:41:40;13.60;67.20
24326;DHT22;12448;45.532;5.290;2022-09-17T18:44:07;13.60;67.30
24326;DHT22;12448;45.532;5.290;2022-09-17T18:46:32;13.70;67.30
24326;DHT22;12448;45.532;5.290;2022-09-17T18:49:02;13.60;66.70
24326;DHT22;12448;45.532;5.290;2022-09-17T18:51:28;13.50;66.90
24326;DHT22;12448;45.532;5.290;2022-09-17T18:53:57;13.50;67.00
24326;DHT22;12448;45.532;5.290;2022-09-17T18:56:28;13.60;67.30
24326;DHT22;12448;45.532;5.290;2022-09-17T18:59:05;13.60;67.00
24326;DHT22;12448;45.532;5.290;2022-09-17T19:01:31;13.50;66.60
24326;DHT22;12448;45.532;5.290;2022-09-17T19:03:58;13.60;67.00
24326;DHT22;12448;45.532;5.290;2022-09-17T19:06:24;13.50;66.50
24326;DHT22;12448;45.532;5.290;2022-09-17T19:08:50;13.40;66.80
24326;DHT22;12448;45.532;5.290;2022-09-17T19:11:17;13.40;67.20
24326;DHT22;12448;45.532;5.290;2022-09-17T19:13:46;13.30;67.10
24326;DHT22;12448;45.532;5.290;2022-09-17T19:16:15;13.30;67.40
24326;DHT22;12448;45.532;5.290;2022-09-17T19:18:41;13.20;67.70
24326;DHT22;12448;45.532;5.290;2022-09-17T19:21:35;13.10;67.90
24326;DHT22;12448;45.532;5.290;2022-09-17T19:24:04;13.00;68.00
24326;DHT22;12448;45.532;5.290;2022-09-17T19:26:33;13.00;68.40
24326;DHT22;12448;45.532;5.290;2022-09-17T19:28:59;12.90;68.40
24326;DHT22;12448;45.532;5.290;2022-09-17T19:31:36;13.00;68.80
24326;DHT22;12448;45.532;5.290;2022-09-17T19:34:15;13.00;68.40
24326;DHT22;12448;45.532;5.290;2022-09-17T19:37:00;12.90;68.70
24326;DHT22;12448;45.532;5.290;2022-09-17T19:39:26;12.90;69.00
24326;DHT22;12448;45.532;5.290;2022-09-17T19:41:52;12.90;69.30
24326;DHT22;12448;45.532;5.290;2022-09-17T19:44:17;12.90;69.40
24326;DHT22;12448;45.532;5.290;2022-09-17T19:46:46;12.90;69.20
24326;DHT22;12448;45.532;5.290;2022-09-17T19:49:14;12.90;69.30